createdAt,value
2018-09-20T00:00:48.197Z,7.10
2018-09-20T00:03:21.072Z,9.00
2018-09-20T00:05:49.299Z,9.17
2018-09-20T00:08:17.494Z,7.27
2018-09-20T00:10:45.775Z,7.80
2018-09-20T00:13:14.032Z,7.67
2018-09-20T00:15:42.224Z,8.07
2018-09-20T00:18:14.112Z,8.10
2018-09-20T00:20:42.300Z,8.17
2018-09-20T00:23:10.575Z,8.73
2018-09-20T00:25:38.798Z,8.30
2018-09-20T00:28:07.001Z,7.80
2018-09-20T00:30:35.243Z,8.17
2018-09-20T00:33:06.641Z,8.00
2018-09-20T00:35:37.916Z,9.27
2018-09-20T00:38:06.184Z,8.67
2018-09-20T00:40:34.436Z,8.57
2018-09-20T00:43:02.635Z,7.60
2018-09-20T00:45:30.838Z,7.97
2018-09-20T00:48:02.849Z,8.13
2018-09-20T00:50:31.047Z,7.93
2018-09-20T00:52:59.304Z,7.93
2018-09-20T00:55:27.480Z,7.50
2018-09-20T00:57:55.706Z,9.08
2018-09-20T01:00:23.927Z,7.53
2018-09-20T01:02:52.187Z,7.70
2018-09-20T01:05:20.372Z,8.37
2018-09-20T01:07:48.580Z,8.67
2018-09-20T01:10:16.778Z,8.60
2018-09-20T01:12:44.995Z,8.43
2018-09-20T01:15:13.230Z,7.13
2018-09-20T01:17:41.507Z,7.83
2018-09-20T01:20:09.672Z,7.57
2018-09-20T01:22:37.867Z,7.47
2018-09-20T01:25:06.136Z,8.10
2018-09-20T01:27:34.417Z,7.87
2018-09-20T01:30:02.607Z,6.90
2018-09-20T01:32:30.796Z,8.43
2018-09-20T01:35:02.456Z,9.40
2018-09-20T01:37:31.301Z,9.00
2018-09-20T01:39:59.508Z,8.73
2018-09-20T01:42:27.709Z,8.40
2018-09-20T01:44:55.881Z,7.90
2018-09-20T01:47:24.065Z,8.60
2018-09-20T01:49:52.236Z,8.47
2018-09-20T01:52:20.436Z,9.33
2018-09-20T01:54:48.637Z,8.60
2018-09-20T01:57:16.856Z,7.30
2018-09-20T01:59:45.041Z,8.87
2018-09-20T02:02:13.236Z,8.43
2018-09-20T02:04:41.409Z,9.00
2018-09-20T02:07:09.652Z,7.73
2018-09-20T02:09:37.917Z,8.30
2018-09-20T02:12:06.140Z,9.10
2018-09-20T02:14:34.311Z,7.77
2018-09-20T02:17:02.612Z,8.83
2018-09-20T02:19:30.818Z,8.80
2018-09-20T02:21:59.059Z,7.47
2018-09-20T02:24:27.283Z,9.30
2018-09-20T02:26:55.452Z,8.97
2018-09-20T02:29:23.667Z,7.55
2018-09-20T02:31:51.851Z,10.07
2018-09-20T02:34:20.028Z,8.93
2018-09-20T02:36:48.296Z,8.78
2018-09-20T02:39:16.436Z,7.85
2018-09-20T02:41:44.644Z,9.85
2018-09-20T02:44:12.951Z,9.60
2018-09-20T02:46:41.420Z,9.13
2018-09-20T02:49:09.599Z,9.13
2018-09-20T02:51:37.796Z,9.57
2018-09-20T02:54:06.012Z,9.23
2018-09-20T02:56:34.196Z,9.07
2018-09-20T02:59:02.545Z,9.53
2018-09-20T03:01:30.779Z,9.70
2018-09-20T03:03:59.027Z,10.40
2018-09-20T03:06:31.034Z,11.33
2018-09-20T03:08:59.295Z,10.03
2018-09-20T03:11:27.484Z,9.67
2018-09-20T03:13:55.656Z,10.63
2018-09-20T03:16:23.880Z,9.18
2018-09-20T03:18:52.330Z,8.48
2018-09-20T03:21:24.384Z,9.10
2018-09-20T03:23:52.816Z,10.03
2018-09-20T03:26:21.048Z,10.30
2018-09-20T03:28:52.286Z,10.97
2018-09-20T03:31:20.479Z,10.07
2018-09-20T03:33:49.117Z,10.83
2018-09-20T03:36:21.305Z,10.65
2018-09-20T03:38:49.510Z,9.90
2018-09-20T03:41:18.485Z,11.05
2018-09-20T03:43:47.063Z,10.05
2018-09-20T03:46:15.234Z,9.30
2018-09-20T03:48:43.455Z,9.67
2018-09-20T03:51:11.660Z,9.83
2018-09-20T03:53:40.071Z,9.67
2018-09-20T03:56:08.248Z,10.60
2018-09-20T03:58:36.467Z,10.73
2018-09-20T04:01:04.994Z,10.30
2018-09-20T04:03:33.245Z,10.00
2018-09-20T04:06:13.503Z,10.33
2018-09-20T04:08:41.704Z,9.90
2018-09-20T04:11:09.921Z,9.33
2018-09-20T04:13:38.131Z,10.20
2018-09-20T04:16:06.429Z,10.17
2018-09-20T04:18:34.728Z,9.80
2018-09-20T04:21:02.956Z,9.53
2018-09-20T04:23:31.153Z,10.00
2018-09-20T04:25:59.401Z,11.20
2018-09-20T04:28:27.654Z,10.47
2018-09-20T04:30:55.850Z,10.20
2018-09-20T04:33:24.058Z,9.43
2018-09-20T04:35:52.282Z,11.50
2018-09-20T04:38:20.661Z,12.73
2018-09-20T04:40:48.886Z,11.33
2018-09-20T04:43:17.288Z,10.65
2018-09-20T04:45:45.509Z,10.50
2018-09-20T04:48:13.971Z,11.33
2018-09-20T04:50:42.993Z,10.80
2018-09-20T04:53:11.196Z,10.90
2018-09-20T04:55:39.434Z,11.10
2018-09-20T04:58:07.894Z,12.05
2018-09-20T05:00:36.145Z,10.57
2018-09-20T05:03:04.341Z,11.30
2018-09-20T05:05:33.525Z,12.10
2018-09-20T05:08:02.637Z,11.22
2018-09-20T05:10:30.892Z,11.20
2018-09-20T05:12:59.121Z,9.98
2018-09-20T05:15:27.315Z,10.08
2018-09-20T05:17:55.493Z,11.40
2018-09-20T05:20:23.763Z,12.03
2018-09-20T05:22:52.176Z,11.80
2018-09-20T05:25:20.410Z,12.23
2018-09-20T05:27:48.580Z,10.72
2018-09-20T05:30:16.814Z,12.70
2018-09-20T05:32:44.992Z,11.80
2018-09-20T05:35:13.649Z,12.13
2018-09-20T05:37:41.879Z,10.93
2018-09-20T05:40:10.208Z,12.07
2018-09-20T05:42:38.460Z,11.80
2018-09-20T05:45:06.904Z,11.13
2018-09-20T05:47:36.038Z,12.00
2018-09-20T05:50:05.348Z,11.30
2018-09-20T05:52:33.536Z,11.13
2018-09-20T05:55:04.958Z,11.67
2018-09-20T05:57:33.155Z,13.32
2018-09-20T06:00:01.702Z,11.22
2018-09-20T06:02:29.912Z,12.40
2018-09-20T06:04:58.173Z,12.98
2018-09-20T06:07:26.425Z,11.23
2018-09-20T06:09:59.119Z,11.83
2018-09-20T06:12:27.403Z,11.95
2018-09-20T06:14:55.720Z,10.60
2018-09-20T06:17:24.303Z,11.47
2018-09-20T06:19:52.500Z,11.17
2018-09-20T06:22:21.514Z,11.08
2018-09-20T06:24:52.673Z,9.90
2018-09-20T06:27:20.859Z,10.10
2018-09-20T06:29:49.070Z,10.80
2018-09-20T06:32:17.328Z,11.43
2018-09-20T06:34:45.569Z,10.68
2018-09-20T06:37:13.773Z,11.43
2018-09-20T06:39:45.078Z,9.60
2018-09-20T06:42:13.260Z,11.70
2018-09-20T06:44:42.229Z,11.12
2018-09-20T06:47:10.485Z,9.23
2018-09-20T06:49:38.709Z,11.88
2018-09-20T06:52:06.991Z,9.73
2018-09-20T06:54:35.192Z,10.33
2018-09-20T06:57:03.497Z,10.87
2018-09-20T06:59:32.329Z,10.40
2018-09-20T07:02:01.886Z,12.60
2018-09-20T07:04:30.114Z,12.50
2018-09-20T07:06:58.333Z,10.30
2018-09-20T07:09:30.009Z,10.83
2018-09-20T07:12:01.465Z,10.20
2018-09-20T07:14:29.669Z,10.18
2018-09-20T07:16:57.855Z,10.00
2018-09-20T07:19:26.120Z,10.60
2018-09-20T07:21:54.304Z,10.80
2018-09-20T07:24:27.020Z,9.33
2018-09-20T07:26:58.681Z,10.20
2018-09-20T07:29:26.887Z,10.50
2018-09-20T07:31:55.148Z,9.60
2018-09-20T07:34:23.433Z,10.80
2018-09-20T07:36:52.600Z,9.78
2018-09-20T07:39:21.042Z,10.77
2018-09-20T07:41:49.315Z,10.10
2018-09-20T07:44:17.736Z,10.00
2018-09-20T07:46:45.964Z,8.40
2018-09-20T07:49:14.152Z,9.25
2018-09-20T07:51:42.368Z,9.80
2018-09-20T07:54:32.944Z,10.93
2018-09-20T07:57:33.494Z,9.53
2018-09-20T08:00:31.960Z,11.05
2018-09-20T08:03:30.388Z,9.13
2018-09-20T08:06:28.615Z,10.25
2018-09-20T08:09:26.413Z,9.97
2018-09-20T08:12:24.099Z,9.30
2018-09-20T08:14:52.359Z,8.83
2018-09-20T08:17:42.863Z,8.95
2018-09-20T08:20:40.626Z,8.98
2018-09-20T08:23:39.433Z,10.15
2018-09-20T08:26:37.347Z,8.20
2018-09-20T08:29:35.057Z,8.93
2018-09-20T08:32:33.788Z,7.78
2018-09-20T08:35:31.680Z,9.37
2018-09-20T08:37:59.908Z,8.13
2018-09-20T08:40:58.228Z,8.35
2018-09-20T08:43:56.028Z,7.90
2018-09-20T08:46:53.989Z,9.05
2018-09-20T08:49:51.851Z,7.87
2018-09-20T08:52:49.544Z,8.83
2018-09-20T08:55:48.036Z,8.70
2018-09-20T08:58:45.921Z,8.57
2018-09-20T09:01:14.222Z,7.30
2018-09-20T09:04:05.281Z,7.92
2018-09-20T09:07:03.619Z,6.83
2018-09-20T09:10:01.558Z,8.75
2018-09-20T09:12:59.259Z,7.62
2018-09-20T09:15:58.352Z,7.83
2018-09-20T09:18:56.017Z,8.67
2018-09-20T09:21:54.116Z,7.10
2018-09-20T09:24:22.345Z,8.38
2018-09-20T09:54:16.561Z,8.37
2018-09-20T09:56:44.729Z,6.83
2018-09-20T09:59:13.493Z,7.17
2018-09-20T10:01:41.749Z,6.80
2018-09-20T10:04:09.993Z,6.90
2018-09-20T10:06:38.248Z,7.03
2018-09-20T10:09:08.705Z,7.47
2018-09-20T10:11:37.746Z,7.26
2018-09-20T10:14:06.030Z,7.43
2018-09-20T10:16:34.480Z,6.87
2018-09-20T10:19:03.008Z,7.37
2018-09-20T10:21:31.204Z,6.43
2018-09-20T10:23:59.477Z,6.70
2018-09-20T10:26:27.685Z,7.43
2018-09-20T10:28:55.930Z,7.00
2018-09-20T10:31:24.203Z,7.08
2018-09-20T10:33:53.481Z,6.92
2018-09-20T10:36:22.198Z,7.52
2018-09-20T10:38:50.424Z,8.63
2018-09-20T10:41:18.781Z,6.90
2018-09-20T10:43:47.100Z,7.20
2018-09-20T10:46:15.370Z,7.17
2018-09-20T10:48:43.608Z,7.30
2018-09-20T10:51:12.062Z,7.20
2018-09-20T10:54:02.102Z,6.33
2018-09-20T11:13:20.540Z,7.03
2018-09-20T11:16:12.449Z,7.57
2018-09-20T11:19:10.741Z,6.83
2018-09-20T11:22:08.788Z,6.15
2018-09-20T11:25:06.618Z,7.92
2018-09-20T11:28:04.642Z,5.85
2018-09-20T11:31:03.276Z,5.75
2018-09-20T11:34:01.576Z,7.37
2018-09-20T11:36:29.804Z,6.83
2018-09-20T11:39:22.602Z,7.37
2018-09-20T11:55:15.776Z,6.00
2018-09-20T11:57:43.977Z,5.37
2018-09-20T12:00:12.484Z,4.87
2018-09-20T12:02:40.724Z,4.87
2018-09-20T12:05:09.112Z,5.40
2018-09-20T12:07:37.339Z,5.17
2018-09-20T12:10:05.565Z,5.30
2018-09-20T12:12:33.812Z,4.10
2018-09-20T12:15:02.013Z,5.00
2018-09-20T12:17:30.239Z,5.60
2018-09-20T12:19:58.471Z,5.03
2018-09-20T12:22:26.750Z,4.83
2018-09-20T12:24:55.118Z,5.03
2018-09-20T12:27:23.316Z,4.97
2018-09-20T12:29:54.560Z,4.80
2018-09-20T12:32:23.005Z,5.50
2018-09-20T12:34:57.976Z,5.08
2018-09-20T12:37:40.716Z,4.70
2018-09-20T12:40:09.378Z,5.70
2018-09-20T12:42:37.583Z,5.03
2018-09-20T12:45:09.617Z,6.03
2018-09-20T12:47:37.802Z,5.40
2018-09-20T12:50:06.608Z,6.00
2018-09-20T12:52:35.020Z,5.60
2018-09-20T12:55:03.339Z,4.90
2018-09-20T12:57:31.567Z,4.83
2018-09-20T13:00:03.880Z,5.80
2018-09-20T13:02:32.137Z,6.10
2018-09-20T13:05:00.400Z,5.87
2018-09-20T13:07:28.636Z,6.30
2018-09-20T13:09:56.961Z,4.93
2018-09-20T13:12:25.203Z,5.47
2018-09-20T13:14:53.452Z,4.83
2018-09-20T13:17:21.708Z,5.72
2018-09-20T13:19:50.696Z,6.60
2018-09-20T13:22:19.549Z,4.90
2018-09-20T13:24:47.752Z,5.30
2018-09-20T13:27:15.968Z,5.42
2018-09-20T13:29:45.577Z,5.10
2018-09-20T13:32:14.465Z,5.34
2018-09-20T13:34:42.765Z,5.13
2018-09-20T13:37:11.049Z,5.37
2018-09-20T13:39:39.453Z,6.05
2018-09-20T13:42:07.723Z,4.67
2018-09-20T13:44:36.101Z,4.55
2018-09-20T13:47:04.304Z,5.80
2018-09-20T13:49:32.533Z,6.17
2018-09-20T13:52:03.568Z,4.90
2018-09-20T13:54:31.796Z,4.50
2018-09-20T13:56:59.986Z,5.45
2018-09-20T13:59:28.221Z,4.60
2018-09-20T14:01:59.801Z,4.83
2018-09-20T14:04:28.224Z,5.40
2018-09-20T14:06:56.465Z,5.43
2018-09-20T14:09:24.683Z,5.43
2018-09-20T14:11:52.927Z,4.17
2018-09-20T14:14:21.160Z,5.10
2018-09-20T14:16:53.669Z,6.30
2018-09-20T14:19:26.665Z,5.62
2018-09-20T14:21:55.357Z,5.33
2018-09-20T14:24:23.658Z,5.70
2018-09-20T14:26:53.062Z,5.48
2018-09-20T14:29:21.669Z,5.25
2018-09-20T14:31:54.884Z,5.33
2018-09-20T14:34:23.273Z,4.70
2018-09-20T14:42:21.085Z,5.27
2018-09-20T14:44:49.269Z,4.97
2018-09-20T14:47:21.008Z,4.80
2018-09-20T14:49:49.378Z,4.80
2018-09-20T14:52:17.857Z,5.63
2018-09-20T14:54:46.857Z,6.10
2018-09-20T14:57:15.098Z,5.07
2018-09-20T14:59:43.433Z,5.70
2018-09-20T15:02:11.720Z,4.78
2018-09-20T15:04:39.893Z,4.77
2018-09-20T15:07:08.280Z,5.58
2018-09-20T15:09:36.496Z,5.67
2018-09-20T15:12:04.836Z,6.03
2018-09-20T15:14:33.070Z,6.00
2018-09-20T15:17:01.333Z,5.67
2018-09-20T15:19:29.701Z,5.60
2018-09-20T15:21:58.164Z,8.07
2018-09-20T15:24:26.436Z,5.90
2018-09-20T15:26:55.300Z,5.58
2018-09-20T15:29:23.849Z,6.30
2018-09-20T15:31:52.024Z,4.47
2018-09-20T15:34:20.596Z,5.75
2018-09-20T15:36:48.817Z,5.37
2018-09-20T15:39:17.093Z,5.78
2018-09-20T15:41:45.397Z,6.13
2018-09-20T15:44:13.601Z,6.08
2018-09-20T15:46:41.924Z,5.17
2018-09-20T15:49:10.096Z,5.10
2018-09-20T15:51:38.329Z,6.25
2018-09-20T15:54:06.546Z,6.80
2018-09-20T15:56:34.793Z,6.05
2018-09-20T15:59:03.046Z,5.97
2018-09-20T16:01:31.227Z,6.47
2018-09-20T16:03:59.417Z,5.50
2018-09-20T16:06:28.600Z,5.50
2018-09-20T16:08:56.877Z,6.83
2018-09-20T16:11:25.116Z,5.30
2018-09-20T16:13:53.488Z,5.80
2018-09-20T16:16:21.823Z,5.77
2018-09-20T16:18:50.335Z,5.07
2018-09-20T16:21:18.745Z,4.50
2018-09-20T16:23:47.044Z,5.60
2018-09-20T16:26:15.279Z,5.70
2018-09-20T16:28:50.682Z,5.47
2018-09-20T16:31:36.265Z,5.10
2018-09-20T16:34:16.876Z,5.33
2018-09-20T16:37:09.637Z,5.42
2018-09-20T16:39:40.226Z,6.22
2018-09-20T16:42:11.209Z,6.03
2018-09-20T16:44:39.747Z,5.40
2018-09-20T16:47:08.892Z,5.50
2018-09-20T16:49:37.098Z,5.27
2018-09-20T16:52:05.301Z,5.20
2018-09-20T16:54:34.180Z,5.65
2018-09-20T16:57:02.431Z,5.80
2018-09-20T16:59:30.648Z,5.08
2018-09-20T17:01:58.858Z,5.50
2018-09-20T17:04:27.066Z,5.55
2018-09-20T17:06:55.660Z,6.13
2018-09-20T17:09:23.880Z,5.23
2018-09-20T17:11:52.108Z,5.57
2018-09-20T17:14:20.356Z,6.03
2018-09-20T17:16:48.627Z,5.92
2018-09-20T17:19:16.824Z,4.50
2018-09-20T17:21:44.996Z,5.23
2018-09-20T17:24:13.347Z,4.93
2018-09-20T17:26:41.564Z,5.50
2018-09-20T17:29:09.920Z,5.47
2018-09-20T17:31:38.324Z,6.20
2018-09-20T17:34:06.553Z,5.80
2018-09-20T17:36:35.465Z,6.43
2018-09-20T17:39:04.602Z,6.80
2018-09-20T17:41:34.751Z,5.30
2018-09-20T17:44:06.925Z,6.30
2018-09-20T17:46:35.319Z,5.53
2018-09-20T17:49:03.596Z,7.72
2018-09-20T17:51:32.117Z,6.80
2018-09-20T17:54:01.034Z,5.55
2018-09-20T17:56:30.538Z,6.30
2018-09-20T17:58:59.965Z,5.92
2018-09-20T18:01:28.336Z,7.22
2018-09-20T18:03:56.548Z,5.20
2018-09-20T18:06:28.703Z,5.60
2018-09-20T18:08:56.892Z,6.10
2018-09-20T18:11:25.142Z,5.87
2018-09-20T18:13:53.556Z,6.78
2018-09-20T18:16:21.808Z,6.00
2018-09-20T18:18:50.027Z,6.10
2018-09-20T18:21:18.388Z,6.97
2018-09-20T18:23:46.652Z,6.58
2018-09-20T18:26:14.912Z,5.87
2018-09-20T18:28:43.189Z,5.47
2018-09-20T18:31:12.152Z,6.00
2018-09-20T18:33:41.180Z,6.63
2018-09-20T18:36:13.665Z,6.20
2018-09-20T18:38:41.861Z,6.57
2018-09-20T18:41:10.146Z,5.83
2018-09-20T18:43:38.360Z,6.30
2018-09-20T18:46:06.657Z,6.37
2018-09-20T18:48:34.890Z,7.17
2018-09-20T18:51:03.094Z,7.20
2018-09-20T18:53:31.376Z,7.10
2018-09-20T18:55:59.660Z,7.10
2018-09-20T18:58:27.954Z,6.83
2018-09-20T19:00:56.231Z,6.80
2018-09-20T19:03:24.528Z,6.77
2018-09-20T19:05:55.964Z,6.90
2018-09-20T19:08:28.430Z,6.30
2018-09-20T19:10:56.789Z,6.40
2018-09-20T19:13:24.976Z,6.00
2018-09-20T19:15:53.196Z,6.00
2018-09-20T19:18:21.446Z,7.47
2018-09-20T19:20:49.688Z,6.83
2018-09-20T19:23:19.753Z,6.23
2018-09-20T19:25:48.304Z,6.85
2018-09-20T19:28:16.539Z,6.58
2018-09-20T19:30:44.820Z,7.07
2018-09-20T19:33:13.136Z,7.00
2018-09-20T19:35:41.404Z,6.77
2018-09-20T19:38:14.188Z,8.93
2018-09-20T19:40:44.911Z,6.73
2018-09-20T19:43:13.695Z,8.54
2018-09-20T19:45:41.896Z,7.03
2018-09-20T19:48:10.236Z,8.63
2018-09-20T19:50:38.704Z,8.23
2018-09-20T19:53:06.916Z,7.75
2018-09-20T19:55:35.150Z,7.70
2018-09-20T19:58:03.507Z,6.10
2018-09-20T20:00:32.459Z,7.30
2018-09-20T20:03:00.548Z,7.33
2018-09-20T20:05:28.781Z,6.97
2018-09-20T20:08:04.881Z,6.40
2018-09-20T20:10:33.055Z,7.33
2018-09-20T20:13:01.258Z,6.87
2018-09-20T20:15:29.584Z,7.70
2018-09-20T20:17:58.692Z,8.37
2018-09-20T20:20:26.953Z,7.00
2018-09-20T20:22:58.283Z,7.67
2018-09-20T20:25:26.501Z,6.90
2018-09-20T20:27:54.865Z,8.20
2018-09-20T20:30:23.095Z,7.63
2018-09-20T20:32:51.888Z,7.27
2018-09-20T20:35:20.305Z,7.20
2018-09-20T20:37:53.608Z,8.08
2018-09-20T20:40:21.846Z,7.12
2018-09-20T20:42:50.086Z,7.57
2018-09-20T20:45:18.328Z,7.60
2018-09-20T20:47:46.568Z,8.10
2018-09-20T20:50:15.326Z,7.13
2018-09-20T20:52:47.993Z,7.67
2018-09-20T20:55:16.233Z,7.70
2018-09-20T20:57:44.819Z,7.97
2018-09-20T21:00:13.044Z,8.00
2018-09-20T21:02:41.332Z,8.07
2018-09-20T21:05:10.064Z,7.20
2018-09-20T21:07:38.273Z,8.00
2018-09-20T21:10:06.692Z,8.47
2018-09-20T21:12:35.943Z,9.50
2018-09-20T21:15:04.909Z,7.97
2018-09-20T21:17:33.226Z,7.47
2018-09-20T21:20:01.348Z,8.00
2018-09-20T21:22:29.547Z,7.97
2018-09-20T21:24:57.749Z,7.97
2018-09-20T21:27:25.952Z,9.10
2018-09-20T21:29:54.224Z,8.13
2018-09-20T21:32:22.429Z,8.53
2018-09-20T21:34:50.626Z,8.20
2018-09-20T21:37:18.888Z,6.80
2018-09-20T21:39:47.203Z,9.08
2018-09-20T21:42:15.433Z,7.80
2018-09-20T21:44:44.749Z,7.97
2018-09-20T21:47:13.802Z,7.53
2018-09-20T21:49:42.009Z,8.60
2018-09-20T21:52:10.610Z,8.10
2018-09-20T21:54:38.884Z,7.97
2018-09-20T21:57:07.160Z,8.23
2018-09-20T21:59:35.367Z,9.37
2018-09-20T22:02:04.200Z,9.03
2018-09-20T22:04:33.256Z,10.50
2018-09-20T22:07:01.493Z,8.23
2018-09-20T22:09:30.368Z,7.03
2018-09-20T22:11:58.665Z,8.03
2018-09-20T22:14:26.921Z,8.10
2018-09-20T22:16:55.169Z,7.63
2018-09-20T22:19:23.726Z,8.13
2018-09-20T22:26:59.808Z,8.28
2018-09-20T22:29:28.040Z,8.53
2018-09-20T22:31:56.512Z,8.07
2018-09-20T22:34:24.896Z,8.80
2018-09-20T22:36:53.116Z,8.50
2018-09-20T22:39:28.436Z,8.43
2018-09-20T22:41:56.816Z,8.30
2018-09-20T22:44:25.322Z,8.18
2018-09-20T22:46:53.594Z,7.70
2018-09-20T22:49:21.928Z,8.80
2018-09-20T22:52:12.108Z,7.83
2018-09-20T22:55:10.222Z,7.97
2018-09-20T22:58:08.083Z,7.80
2018-09-20T23:01:05.787Z,7.87
2018-09-20T23:04:03.653Z,8.37
2018-09-20T23:07:02.445Z,7.80
2018-09-20T23:10:00.772Z,7.17
2018-09-20T23:12:28.972Z,6.50
2018-09-20T23:15:20.079Z,7.42
2018-09-20T23:18:18.264Z,7.80
2018-09-20T23:21:16.288Z,8.10
2018-09-20T23:24:14.829Z,8.57
2018-09-20T23:27:12.709Z,7.47
2018-09-20T23:30:10.536Z,8.95
2018-09-20T23:33:08.117Z,8.17
2018-09-20T23:35:36.314Z,8.10
2018-09-20T23:38:28.024Z,8.50
2018-09-20T23:41:26.211Z,8.00
2018-09-20T23:44:24.002Z,8.63
2018-09-20T23:47:21.531Z,8.57
2018-09-20T23:50:19.746Z,7.40
2018-09-20T23:52:49.407Z,8.80
2018-09-20T23:55:17.672Z,8.00
2018-09-20T23:57:50.363Z,7.83
